sensor_id;sensor_type;location;lat;lon;timestamp;pressure;altitude;pressure_sealevel;temperature;humidity
50672;BME280;46021;55.882;37.654;2023-02-19T00:02:15;97999.97;;;-7.67;70.92
50672;BME280;46021;55.882;37.654;2023-02-19T00:04:42;98000.88;;;-7.60;70.34
50672;BME280;46021;55.882;37.654;2023-02-19T00:07:10;97986.16;;;-7.89;71.10
50672;BME280;46021;55.882;37.654;2023-02-19T00:09:37;97988.09;;;-7.71;71.18
50672;BME280;46021;55.882;37.654;2023-02-19T00:12:05;97989.78;;;-7.70;70.62
50672;BME280;46021;55.882;37.654;2023-02-19T00:14:32;97984.84;;;-7.63;70.23
50672;BME280;46021;55.882;37.654;2023-02-19T00:16:59;97987.41;;;-7.59;71.23
50672;BME280;46021;55.882;37.654;2023-02-19T00:19:27;97969.66;;;-7.63;70.38
50672;BME280;46021;55.882;37.654;2023-02-19T00:21:54;97973.91;;;-7.61;70.20
50672;BME280;46021;55.882;37.654;2023-02-19T00:24:22;97973.84;;;-7.64;70.21
50672;BME280;46021;55.882;37.654;2023-02-19T00:26:50;97977.28;;;-7.59;71.07
50672;BME280;46021;55.882;37.654;2023-02-19T00:29:18;97972.09;;;-7.68;70.80
50672;BME280;46021;55.882;37.654;2023-02-19T00:31:46;97969.59;;;-7.67;70.22
50672;BME280;46021;55.882;37.654;2023-02-19T00:34:13;97965.25;;;-7.75;70.18
50672;BME280;46021;55.882;37.654;2023-02-19T00:36:41;97974.63;;;-7.68;71.24
50672;BME280;46021;55.882;37.654;2023-02-19T00:39:13;97965.31;;;-7.72;71.24
50672;BME280;46021;55.882;37.654;2023-02-19T00:41:41;97968.63;;;-7.76;71.41
50672;BME280;46021;55.882;37.654;2023-02-19T00:44:09;97966.94;;;-7.77;71.15
50672;BME280;46021;55.882;37.654;2023-02-19T00:46:39;97971.16;;;-7.78;71.35
50672;BME280;46021;55.882;37.654;2023-02-19T00:49:13;97974.59;;;-7.73;71.43
50672;BME280;46021;55.882;37.654;2023-02-19T00:51:41;97963.50;;;-7.81;71.49
50672;BME280;46021;55.882;37.654;2023-02-19T00:54:09;97966.91;;;-7.80;71.69
50672;BME280;46021;55.882;37.654;2023-02-19T00:56:36;97956.75;;;-7.84;70.88
50672;BME280;46021;55.882;37.654;2023-02-19T00:59:04;97957.63;;;-7.80;71.52
50672;BME280;46021;55.882;37.654;2023-02-19T01:01:31;97948.28;;;-7.86;71.24
50672;BME280;46021;55.882;37.654;2023-02-19T01:03:58;97942.31;;;-7.91;71.11
50672;BME280;46021;55.882;37.654;2023-02-19T01:06:26;97951.50;;;-7.96;71.92
50672;BME280;46021;55.882;37.654;2023-02-19T01:08:54;97942.97;;;-8.04;72.11
50672;BME280;46021;55.882;37.654;2023-02-19T01:11:21;97941.38;;;-7.96;72.00
50672;BME280;46021;55.882;37.654;2023-02-19T01:13:49;97941.38;;;-7.96;71.79
50672;BME280;46021;55.882;37.654;2023-02-19T01:16:20;97932.25;;;-7.88;72.40
50672;BME280;46021;55.882;37.654;2023-02-19T01:18:48;97924.66;;;-7.88;71.50
50672;BME280;46021;55.882;37.654;2023-02-19T01:21:18;97929.78;;;-7.81;72.00
50672;BME280;46021;55.882;37.654;2023-02-19T01:23:46;97925.53;;;-7.82;72.17
50672;BME280;46021;55.882;37.654;2023-02-19T01:26:17;97911.16;;;-7.88;72.10
50672;BME280;46021;55.882;37.654;2023-02-19T01:28:46;97921.22;;;-7.93;71.41
50672;BME280;46021;55.882;37.654;2023-02-19T01:31:15;97913.59;;;-7.94;71.71
50672;BME280;46021;55.882;37.654;2023-02-19T01:33:45;97916.09;;;-7.96;72.05
50672;BME280;46021;55.882;37.654;2023-02-19T01:36:13;97921.97;;;-7.98;72.25
50672;BME280;46021;55.882;37.654;2023-02-19T01:38:41;97910.09;;;-8.04;72.37
50672;BME280;46021;55.882;37.654;2023-02-19T01:41:10;97921.09;;;-8.02;71.33
50672;BME280;46021;55.882;37.654;2023-02-19T01:46:24;97912.56;;;-8.07;71.91
50672;BME280;46021;55.882;37.654;2023-02-19T01:48:53;97918.53;;;-8.04;72.01
50672;BME280;46021;55.882;37.654;2023-02-19T01:51:21;97909.22;;;-8.06;71.44
50672;BME280;46021;55.882;37.654;2023-02-19T01:53:52;97914.16;;;-8.15;71.64
50672;BME280;46021;55.882;37.654;2023-02-19T01:56:21;97915.94;;;-8.08;71.52
50672;BME280;46021;55.882;37.654;2023-02-19T01:58:49;97900.59;;;-8.20;72.35
50672;BME280;46021;55.882;37.654;2023-02-19T02:01:16;97900.59;;;-8.20;72.71
50672;BME280;46021;55.882;37.654;2023-02-19T02:03:46;97903.97;;;-8.21;72.60
50672;BME280;46021;55.882;37.654;2023-02-19T02:06:20;97905.53;;;-8.31;72.57
50672;BME280;46021;55.882;37.654;2023-02-19T02:08:50;97906.38;;;-8.31;72.51
50672;BME280;46021;55.882;37.654;2023-02-19T02:11:35;97904.66;;;-8.32;71.71
50672;BME280;46021;55.882;37.654;2023-02-19T02:14:04;97905.44;;;-8.36;71.70
50672;BME280;46021;55.882;37.654;2023-02-19T02:16:37;97906.25;;;-8.38;71.79
50672;BME280;46021;55.882;37.654;2023-02-19T02:19:22;97905.41;;;-8.42;72.10
50672;BME280;46021;55.882;37.654;2023-02-19T02:22:04;97902.84;;;-8.44;72.30
50672;BME280;46021;55.882;37.654;2023-02-19T02:25:08;97894.44;;;-8.39;72.12
50672;BME280;46021;55.882;37.654;2023-02-19T02:27:43;97904.56;;;-8.41;71.54
50672;BME280;46021;55.882;37.654;2023-02-19T02:30:26;97899.41;;;-8.47;72.02
50672;BME280;46021;55.882;37.654;2023-02-19T02:33:00;97899.41;;;-8.47;71.68
50672;BME280;46021;55.882;37.654;2023-02-19T02:35:34;97899.50;;;-8.39;71.65
50672;BME280;46021;55.882;37.654;2023-02-19T02:38:06;97890.22;;;-8.44;71.50
50672;BME280;46021;55.882;37.654;2023-02-19T02:40:36;97896.81;;;-8.53;71.95
50672;BME280;46021;55.882;37.654;2023-02-19T02:43:05;97892.59;;;-8.53;72.07
50672;BME280;46021;55.882;37.654;2023-02-19T02:45:34;97890.00;;;-8.57;71.94
50672;BME280;46021;55.882;37.654;2023-02-19T02:48:22;97881.72;;;-8.50;71.58
50672;BME280;46021;55.882;37.654;2023-02-19T02:50:53;97882.28;;;-8.67;72.20
50672;BME280;46021;55.882;37.654;2023-02-19T02:53:26;97887.34;;;-8.67;71.69
50672;BME280;46021;55.882;37.654;2023-02-19T02:56:13;97880.63;;;-8.66;72.28
50672;BME280;46021;55.882;37.654;2023-02-19T02:58:42;97877.19;;;-8.71;72.00
50672;BME280;46021;55.882;37.654;2023-02-19T03:01:16;97875.44;;;-8.74;72.58
50672;BME280;46021;55.882;37.654;2023-02-19T03:04:07;97872.06;;;-8.76;74.69
50672;BME280;46021;55.882;37.654;2023-02-19T03:06:36;97874.66;;;-8.70;74.57
50672;BME280;46021;55.882;37.654;2023-02-19T03:09:08;97870.63;;;-8.58;74.64
50672;BME280;46021;55.882;37.654;2023-02-19T03:11:38;97881.66;;;-8.53;74.30
50672;BME280;46021;55.882;37.654;2023-02-19T03:14:28;97871.59;;;-8.50;74.17
50672;BME280;46021;55.882;37.654;2023-02-19T03:17:21;97878.13;;;-8.65;73.95
50672;BME280;46021;55.882;37.654;2023-02-19T03:20:09;97880.75;;;-8.57;74.00
50672;BME280;46021;55.882;37.654;2023-02-19T03:22:39;97880.00;;;-8.51;74.03
50672;BME280;46021;55.882;37.654;2023-02-19T03:25:11;97881.66;;;-8.53;73.87
50672;BME280;46021;55.882;37.654;2023-02-19T03:28:01;97869.75;;;-8.60;74.17
50672;BME280;46021;55.882;37.654;2023-02-19T03:30:32;97868.06;;;-8.61;73.03
50672;BME280;46021;55.882;37.654;2023-02-19T03:33:05;97859.41;;;-8.77;73.47
50672;BME280;46021;55.882;37.654;2023-02-19T03:35:38;97869.63;;;-8.70;73.41
50672;BME280;46021;55.882;37.654;2023-02-19T03:38:11;97862.94;;;-8.66;73.33
50672;BME280;46021;55.882;37.654;2023-02-19T03:40:53;97858.00;;;-8.58;73.54
50672;BME280;46021;55.882;37.654;2023-02-19T03:43:23;97852.00;;;-8.67;73.67
50672;BME280;46021;55.882;37.654;2023-02-19T03:45:58;97846.16;;;-8.63;73.34
50672;BME280;46021;55.882;37.654;2023-02-19T03:48:33;97846.25;;;-8.55;73.58
50672;BME280;46021;55.882;37.654;2023-02-19T03:51:14;97844.63;;;-8.51;74.15
50672;BME280;46021;55.882;37.654;2023-02-19T03:53:52;97845.56;;;-8.46;73.57
50672;BME280;46021;55.882;37.654;2023-02-19T03:56:27;97849.75;;;-8.45;73.55
50672;BME280;46021;55.882;37.654;2023-02-19T03:59:01;97849.69;;;-8.51;73.25
50672;BME280;46021;55.882;37.654;2023-02-19T04:01:34;97845.47;;;-8.51;73.43
50672;BME280;46021;55.882;37.654;2023-02-19T04:04:09;97843.03;;;-8.46;73.90
50672;BME280;46021;55.882;37.654;2023-02-19T04:06:41;97844.63;;;-8.51;73.88
50672;BME280;46021;55.882;37.654;2023-02-19T04:09:12;97842.16;;;-8.48;73.95
50672;BME280;46021;55.882;37.654;2023-02-19T04:11:44;97845.44;;;-8.54;74.48
50672;BME280;46021;55.882;37.654;2023-02-19T04:14:14;97848.81;;;-8.53;73.69
50672;BME280;46021;55.882;37.654;2023-02-19T04:16:45;97847.88;;;-8.58;73.68
50672;BME280;46021;55.882;37.654;2023-02-19T04:19:18;97845.47;;;-8.52;73.99
50672;BME280;46021;55.882;37.654;2023-02-19T04:21:48;97846.22;;;-8.56;73.74
50672;BME280;46021;55.882;37.654;2023-02-19T04:24:19;97847.13;;;-8.53;73.45
50672;BME280;46021;55.882;37.654;2023-02-19T04:26:48;97842.03;;;-8.54;73.48
50672;BME280;46021;55.882;37.654;2023-02-19T04:29:15;97833.72;;;-8.47;73.43
50672;BME280;46021;55.882;37.654;2023-02-19T04:31:42;97844.72;;;-8.44;72.99
50672;BME280;46021;55.882;37.654;2023-02-19T04:34:09;97840.44;;;-8.49;73.82
50672;BME280;46021;55.882;37.654;2023-02-19T04:36:38;97836.16;;;-8.55;73.63
50672;BME280;46021;55.882;37.654;2023-02-19T04:39:05;97824.16;;;-8.71;74.14
50672;BME280;46021;55.882;37.654;2023-02-19T04:41:32;97827.53;;;-8.68;73.94
50672;BME280;46021;55.882;37.654;2023-02-19T04:44:00;97821.72;;;-8.65;73.80
50672;BME280;46021;55.882;37.654;2023-02-19T04:46:27;97836.13;;;-8.56;73.68
50672;BME280;46021;55.882;37.654;2023-02-19T04:48:54;97830.25;;;-8.55;73.32
50672;BME280;46021;55.882;37.654;2023-02-19T04:51:21;97820.09;;;-8.58;74.04
50672;BME280;46021;55.882;37.654;2023-02-19T04:53:50;97825.25;;;-8.52;73.37
50672;BME280;46021;55.882;37.654;2023-02-19T04:56:17;97803.34;;;-8.53;73.98
50672;BME280;46021;55.882;37.654;2023-02-19T04:58:44;97820.28;;;-8.46;73.48
50672;BME280;46021;55.882;37.654;2023-02-19T05:01:12;97817.78;;;-8.43;73.33
50672;BME280;46021;55.882;37.654;2023-02-19T05:03:39;97820.31;;;-8.45;73.78
50672;BME280;46021;55.882;37.654;2023-02-19T05:06:10;97825.41;;;-8.38;73.98
50672;BME280;46021;55.882;37.654;2023-02-19T05:08:38;97822.94;;;-8.34;73.34
50672;BME280;46021;55.882;37.654;2023-02-19T05:11:08;97828.03;;;-8.31;73.15
50672;BME280;46021;55.882;37.654;2023-02-19T05:13:36;97818.78;;;-8.29;73.44
50672;BME280;46021;55.882;37.654;2023-02-19T05:16:05;97804.34;;;-8.37;74.00
50672;BME280;46021;55.882;37.654;2023-02-19T05:18:33;97812.78;;;-8.37;73.48
50672;BME280;46021;55.882;37.654;2023-02-19T05:21:00;97807.66;;;-8.46;73.91
50672;BME280;46021;55.882;37.654;2023-02-19T05:23:27;97814.44;;;-8.42;74.15
50672;BME280;46021;55.882;37.654;2023-02-19T05:25:55;97809.41;;;-8.37;74.32
50672;BME280;46021;55.882;37.654;2023-02-19T05:28:23;97809.41;;;-8.37;74.33
50672;BME280;46021;55.882;37.654;2023-02-19T05:30:55;97797.69;;;-8.32;73.70
50672;BME280;46021;55.882;37.654;2023-02-19T05:33:23;97795.97;;;-8.35;74.20
50672;BME280;46021;55.882;37.654;2023-02-19T05:35:52;97802.84;;;-8.23;74.29
50672;BME280;46021;55.882;37.654;2023-02-19T05:38:20;97797.81;;;-8.21;73.95
50672;BME280;46021;55.882;37.654;2023-02-19T05:40:48;97791.16;;;-8.16;73.71
50672;BME280;46021;55.882;37.654;2023-02-19T05:43:15;97799.59;;;-8.13;73.84
50672;BME280;46021;55.882;37.654;2023-02-19T05:45:44;97796.28;;;-8.07;73.41
50672;BME280;46021;55.882;37.654;2023-02-19T05:48:11;97797.94;;;-8.09;73.89
50672;BME280;46021;55.882;37.654;2023-02-19T05:50:38;97789.50;;;-8.11;73.97
50672;BME280;46021;55.882;37.654;2023-02-19T05:53:11;97786.13;;;-8.13;73.31
50672;BME280;46021;55.882;37.654;2023-02-19T05:55:38;97789.47;;;-8.13;73.49
50672;BME280;46021;55.882;37.654;2023-02-19T05:58:06;97786.16;;;-8.10;73.72
50672;BME280;46021;55.882;37.654;2023-02-19T06:00:33;97787.09;;;-8.00;73.74
50672;BME280;46021;55.882;37.654;2023-02-19T06:03:01;97794.72;;;-7.99;73.25
50672;BME280;46021;55.882;37.654;2023-02-19T06:05:28;97792.22;;;-7.97;73.59
50672;BME280;46021;55.882;37.654;2023-02-19T06:07:56;97777.88;;;-7.97;73.40
50672;BME280;46021;55.882;37.654;2023-02-19T06:10:23;97788.72;;;-8.09;73.85
50672;BME280;46021;55.882;37.654;2023-02-19T06:12:52;97782.00;;;-8.04;74.12
50672;BME280;46021;55.882;37.654;2023-02-19T06:15:19;97788.00;;;-7.97;74.37
50672;BME280;46021;55.882;37.654;2023-02-19T06:17:46;97785.50;;;-7.92;74.20
50672;BME280;46021;55.882;37.654;2023-02-19T06:20:15;97789.78;;;-7.88;73.86
50672;BME280;46021;55.882;37.654;2023-02-19T06:22:42;97779.50;;;-8.02;73.14
50672;BME280;46021;55.882;37.654;2023-02-19T06:25:09;97781.13;;;-8.07;73.48
50672;BME280;46021;55.882;37.654;2023-02-19T06:27:38;97780.34;;;-8.01;74.01
50672;BME280;46021;55.882;37.654;2023-02-19T06:30:07;97782.94;;;-7.97;73.58
50672;BME280;46021;55.882;37.654;2023-02-19T06:32:34;97775.34;;;-7.97;72.95
50672;BME280;46021;55.882;37.654;2023-02-19T06:35:01;97782.22;;;-7.84;72.91
50672;BME280;46021;55.882;37.654;2023-02-19T06:37:31;97785.66;;;-7.77;73.44
50672;BME280;46021;55.882;37.654;2023-02-19T06:39:58;97773.94;;;-7.70;72.85
50672;BME280;46021;55.882;37.654;2023-02-19T06:42:25;97769.75;;;-7.68;72.00
50672;BME280;46021;55.882;37.654;2023-02-19T06:44:52;97774.94;;;-7.56;72.60
50672;BME280;46021;55.882;37.654;2023-02-19T06:47:19;97772.41;;;-7.53;71.35
50672;BME280;46021;55.882;37.654;2023-02-19T06:49:46;97763.06;;;-7.60;71.57
50672;BME280;46021;55.882;37.654;2023-02-19T06:52:13;97774.13;;;-7.50;71.46
50672;BME280;46021;55.882;37.654;2023-02-19T06:54:42;97774.97;;;-7.47;72.43
50672;BME280;46021;55.882;37.654;2023-02-19T06:57:09;97762.44;;;-7.36;71.70
50672;BME280;46021;55.882;37.654;2023-02-19T06:59:36;97751.50;;;-7.30;71.04
50672;BME280;46021;55.882;37.654;2023-02-19T07:02:03;97753.25;;;-7.23;71.68
50672;BME280;46021;55.882;37.654;2023-02-19T07:04:30;97747.41;;;-7.17;71.25
50672;BME280;46021;55.882;37.654;2023-02-19T07:06:57;97744.03;;;-7.16;70.33
50672;BME280;46021;55.882;37.654;2023-02-19T07:09:25;97741.50;;;-7.15;71.07
50672;BME280;46021;55.882;37.654;2023-02-19T07:11:54;97748.25;;;-7.14;70.62
50672;BME280;46021;55.882;37.654;2023-02-19T07:14:21;97749.09;;;-7.13;71.06
50672;BME280;46021;55.882;37.654;2023-02-19T07:16:49;97739.94;;;-6.97;70.98
50672;BME280;46021;55.882;37.654;2023-02-19T07:19:16;97726.47;;;-6.87;70.77
50672;BME280;46021;55.882;37.654;2023-02-19T07:21:43;97733.31;;;-6.74;70.33
50672;BME280;46021;55.882;37.654;2023-02-19T07:24:10;97729.06;;;-6.75;70.15
50672;BME280;46021;55.882;37.654;2023-02-19T07:26:37;97708.78;;;-6.86;70.28
50672;BME280;46021;55.882;37.654;2023-02-19T07:29:06;97728.25;;;-6.74;70.42
50672;BME280;46021;55.882;37.654;2023-02-19T07:31:33;97724.75;;;-6.94;69.37
50672;BME280;46021;55.882;37.654;2023-02-19T07:34:00;97720.59;;;-6.81;69.96
50672;BME280;46021;55.882;37.654;2023-02-19T07:36:27;97718.94;;;-6.78;70.40
50672;BME280;46021;55.882;37.654;2023-02-19T07:38:55;97720.69;;;-6.66;70.27
50672;BME280;46021;55.882;37.654;2023-02-19T07:41:23;97716.41;;;-6.75;69.17
50672;BME280;46021;55.882;37.654;2023-02-19T07:43:50;97719.81;;;-6.70;69.81
50672;BME280;46021;55.882;37.654;2023-02-19T07:46:19;97720.69;;;-6.60;69.70
50672;BME280;46021;55.882;37.654;2023-02-19T07:48:46;97699.53;;;-6.76;69.45
50672;BME280;46021;55.882;37.654;2023-02-19T07:51:15;97704.53;;;-6.87;69.04
50672;BME280;46021;55.882;37.654;2023-02-19T07:53:46;97709.59;;;-6.85;68.94
50672;BME280;46021;55.882;37.654;2023-02-19T07:56:15;97692.69;;;-6.92;69.08
50672;BME280;46021;55.882;37.654;2023-02-19T07:58:42;97701.03;;;-7.06;69.37
50672;BME280;46021;55.882;37.654;2023-02-19T08:01:13;97708.63;;;-7.06;69.96
50672;BME280;46021;55.882;37.654;2023-02-19T08:03:42;97696.84;;;-7.07;69.50
50672;BME280;46021;55.882;37.654;2023-02-19T08:06:08;97706.19;;;-6.90;68.89
50672;BME280;46021;55.882;37.654;2023-02-19T08:08:37;97691.84;;;-6.93;69.02
50672;BME280;46021;55.882;37.654;2023-02-19T08:11:05;97694.31;;;-7.03;68.87
50672;BME280;46021;55.882;37.654;2023-02-19T08:13:51;97690.94;;;-6.99;70.07
50672;BME280;46021;55.882;37.654;2023-02-19T08:16:19;97696.06;;;-6.90;69.37
50672;BME280;46021;55.882;37.654;2023-02-19T08:18:48;97685.13;;;-6.88;69.41
50672;BME280;46021;55.882;37.654;2023-02-19T08:21:15;97693.66;;;-6.70;69.71
50672;BME280;46021;55.882;37.654;2023-02-19T08:23:45;97695.38;;;-6.60;69.83
50672;BME280;46021;55.882;37.654;2023-02-19T08:26:12;97696.19;;;-6.66;69.65
50672;BME280;46021;55.882;37.654;2023-02-19T08:28:40;97700.31;;;-6.83;69.96
50672;BME280;46021;55.882;37.654;2023-02-19T08:31:08;97697.00;;;-6.71;69.32
50672;BME280;46021;55.882;37.654;2023-02-19T08:33:36;97694.44;;;-6.79;69.44
50672;BME280;46021;55.882;37.654;2023-02-19T08:36:07;97687.75;;;-6.71;70.10
50672;BME280;46021;55.882;37.654;2023-02-19T08:38:35;97694.53;;;-6.60;69.53
50672;BME280;46021;55.882;37.654;2023-02-19T08:41:04;97688.63;;;-6.58;69.51
50672;BME280;46021;55.882;37.654;2023-02-19T08:43:32;97681.91;;;-6.50;69.39
50672;BME280;46021;55.882;37.654;2023-02-19T08:45:59;97692.94;;;-6.37;69.30
50672;BME280;46021;55.882;37.654;2023-02-19T08:48:26;97684.50;;;-6.39;68.63
50672;BME280;46021;55.882;37.654;2023-02-19T08:50:54;97687.84;;;-6.46;68.84
50672;BME280;46021;55.882;37.654;2023-02-19T08:53:24;97685.28;;;-6.43;68.66
50672;BME280;46021;55.882;37.654;2023-02-19T08:55:51;97680.16;;;-6.58;68.77
50672;BME280;46021;55.882;37.654;2023-02-19T08:58:19;97680.22;;;-6.49;69.00
50672;BME280;46021;55.882;37.654;2023-02-19T09:00:46;97670.94;;;-6.50;68.83
50672;BME280;46021;55.882;37.654;2023-02-19T09:03:13;97673.44;;;-6.59;68.63
50672;BME280;46021;55.882;37.654;2023-02-19T09:05:40;97678.53;;;-6.45;69.15
50672;BME280;46021;55.882;37.654;2023-02-19T09:08:08;97662.50;;;-6.40;69.11
50672;BME280;46021;55.882;37.654;2023-02-19T09:10:36;97665.06;;;-6.28;69.00
50672;BME280;46021;55.882;37.654;2023-02-19T09:13:04;97670.97;;;-6.29;68.61
50672;BME280;46021;55.882;37.654;2023-02-19T09:15:31;97659.16;;;-6.20;68.54
50672;BME280;46021;55.882;37.654;2023-02-19T09:17:58;97656.63;;;-6.17;68.45
50672;BME280;46021;55.882;37.654;2023-02-19T09:20:26;97650.72;;;-5.99;68.80
50672;BME280;46021;55.882;37.654;2023-02-19T09:22:56;97634.66;;;-5.88;68.77
50672;BME280;46021;55.882;37.654;2023-02-19T09:25:23;97653.28;;;-6.04;67.90
50672;BME280;46021;55.882;37.654;2023-02-19T09:27:54;97654.97;;;-5.74;68.34
50672;BME280;46021;55.882;37.654;2023-02-19T09:30:22;97652.44;;;-6.06;67.97
50672;BME280;46021;55.882;37.654;2023-02-19T09:32:49;97648.16;;;-6.29;68.45
50672;BME280;46021;55.882;37.654;2023-02-19T09:35:17;97647.31;;;-6.18;68.97
50672;BME280;46021;55.882;37.654;2023-02-19T09:37:44;97642.31;;;-6.03;68.87
50672;BME280;46021;55.882;37.654;2023-02-19T09:40:11;97625.31;;;-6.32;68.20
50672;BME280;46021;55.882;37.654;2023-02-19T09:42:40;97638.06;;;-6.12;68.12
50672;BME280;46021;55.882;37.654;2023-02-19T09:45:17;97631.28;;;-6.10;67.80
50672;BME280;46021;55.882;37.654;2023-02-19T09:47:46;97629.59;;;-6.11;67.54
50672;BME280;46021;55.882;37.654;2023-02-19T09:50:17;97627.06;;;-6.21;67.88
50672;BME280;46021;55.882;37.654;2023-02-19T09:52:49;97620.28;;;-6.29;67.53
50672;BME280;46021;55.882;37.654;2023-02-19T09:55:30;97622.78;;;-6.41;67.82
50672;BME280;46021;55.882;37.654;2023-02-19T09:58:00;97628.69;;;-6.42;67.78
50672;BME280;46021;55.882;37.654;2023-02-19T10:00:32;97628.72;;;-6.36;68.45
50672;BME280;46021;55.882;37.654;2023-02-19T10:03:03;97632.94;;;-6.38;68.49
50672;BME280;46021;55.882;37.654;2023-02-19T10:05:32;97620.28;;;-6.35;68.94
50672;BME280;46021;55.882;37.654;2023-02-19T10:08:03;97619.44;;;-6.37;68.51
50672;BME280;46021;55.882;37.654;2023-02-19T10:10:34;97611.78;;;-6.55;69.09
50672;BME280;46021;55.882;37.654;2023-02-19T10:13:14;97621.94;;;-6.40;69.16
50672;BME280;46021;55.882;37.654;2023-02-19T10:15:47;97629.56;;;-6.37;69.20
50672;BME280;46021;55.882;37.654;2023-02-19T10:18:17;97612.63;;;-6.39;69.12
50672;BME280;46021;55.882;37.654;2023-02-19T10:20:45;97601.66;;;-6.34;69.15
50672;BME280;46021;55.882;37.654;2023-02-19T10:23:14;97613.50;;;-6.27;68.68
50672;BME280;46021;55.882;37.654;2023-02-19T10:25:46;97601.69;;;-6.23;67.96
50672;BME280;46021;55.882;37.654;2023-02-19T10:28:15;97601.69;;;-6.18;68.21
50672;BME280;46021;55.882;37.654;2023-02-19T10:30:47;97600.84;;;-6.17;68.40
50672;BME280;46021;55.882;37.654;2023-02-19T10:33:18;97605.09;;;-6.18;68.02
50672;BME280;46021;55.882;37.654;2023-02-19T10:35:55;97603.38;;;-6.19;68.14
50672;BME280;46021;55.882;37.654;2023-02-19T10:38:26;97618.59;;;-6.11;68.30
50672;BME280;46021;55.882;37.654;2023-02-19T10:41:00;97604.22;;;-6.17;67.77
50672;BME280;46021;55.882;37.654;2023-02-19T10:43:30;97605.91;;;-6.20;68.15
50672;BME280;46021;55.882;37.654;2023-02-19T10:46:03;97599.97;;;-6.36;68.65
50672;BME280;46021;55.882;37.654;2023-02-19T10:48:34;97599.97;;;-6.32;68.99
50672;BME280;46021;55.882;37.654;2023-02-19T10:51:05;97608.44;;;-6.30;68.91
50672;BME280;46021;55.882;37.654;2023-02-19T10:53:45;97618.59;;;-6.20;68.87
50672;BME280;46021;55.882;37.654;2023-02-19T10:56:15;97605.91;;;-6.19;68.60
50672;BME280;46021;55.882;37.654;2023-02-19T10:58:43;97609.28;;;-6.24;68.31
50672;BME280;46021;55.882;37.654;2023-02-19T11:01:15;97606.75;;;-6.34;68.51
50672;BME280;46021;55.882;37.654;2023-02-19T11:03:45;97604.22;;;-6.15;68.88
50672;BME280;46021;55.882;37.654;2023-02-19T11:06:14;97609.31;;;-6.08;68.78
50672;BME280;46021;55.882;37.654;2023-02-19T11:08:53;97594.91;;;-6.16;68.19
50672;BME280;46021;55.882;37.654;2023-02-19T11:11:23;97609.28;;;-5.91;68.64
50672;BME280;46021;55.882;37.654;2023-02-19T11:13:52;97594.91;;;-5.67;68.54
50672;BME280;46021;55.882;37.654;2023-02-19T11:16:22;97597.41;;;-5.50;68.39
50672;BME280;46021;55.882;37.654;2023-02-19T11:18:53;97599.13;;;-5.55;67.62
50672;BME280;46021;55.882;37.654;2023-02-19T11:21:25;97598.22;;;-5.34;67.94
50672;BME280;46021;55.882;37.654;2023-02-19T11:23:58;97592.28;;;-5.19;67.61
50672;BME280;46021;55.882;37.654;2023-02-19T11:26:30;97593.06;;;-5.00;67.96
50672;BME280;46021;55.882;37.654;2023-02-19T11:29:01;97578.78;;;-5.40;66.63
50672;BME280;46021;55.882;37.654;2023-02-19T11:31:38;97587.22;;;-5.25;66.10
50672;BME280;46021;55.882;37.654;2023-02-19T11:34:27;97590.53;;;-5.13;66.82
50672;BME280;46021;55.882;37.654;2023-02-19T11:37:11;97588.97;;;-5.47;66.30
50672;BME280;46021;55.882;37.654;2023-02-19T11:39:40;97582.22;;;-5.67;66.11
50672;BME280;46021;55.882;37.654;2023-02-19T11:42:25;97583.06;;;-5.65;66.74
50672;BME280;46021;55.882;37.654;2023-02-19T11:45:07;97593.19;;;-5.50;66.72
50672;BME280;46021;55.882;37.654;2023-02-19T11:50:32;97577.09;;;-5.45;66.50
50672;BME280;46021;55.882;37.654;2023-02-19T11:53:16;97577.09;;;-5.42;66.52
50672;BME280;46021;55.882;37.654;2023-02-19T11:55:56;97581.34;;;-5.54;66.18
50672;BME280;46021;55.882;37.654;2023-02-19T12:01:55;97576.28;;;-5.69;66.21
50672;BME280;46021;55.882;37.654;2023-02-19T12:10:42;97576.31;;;-5.91;66.61
50672;BME280;46021;55.882;37.654;2023-02-19T12:13:17;97574.66;;;-6.01;66.76
50672;BME280;46021;55.882;37.654;2023-02-19T12:16:10;97580.56;;;-6.03;66.70
50672;BME280;46021;55.882;37.654;2023-02-19T12:18:56;97572.97;;;-6.11;66.22
50672;BME280;46021;55.882;37.654;2023-02-19T12:24:32;97578.84;;;-6.34;66.54
50672;BME280;46021;55.882;37.654;2023-02-19T12:27:15;97569.56;;;-6.42;67.39
50672;BME280;46021;55.882;37.654;2023-02-19T12:30:02;97575.47;;;-6.42;67.09
50672;BME280;46021;55.882;37.654;2023-02-19T12:32:42;97581.41;;;-6.32;67.37
50672;BME280;46021;55.882;37.654;2023-02-19T12:35:34;97578.03;;;-6.19;67.46
50672;BME280;46021;55.882;37.654;2023-02-19T12:38:19;97570.41;;;-6.20;67.04
50672;BME280;46021;55.882;37.654;2023-02-19T12:40:59;97566.19;;;-6.28;67.36
50672;BME280;46021;55.882;37.654;2023-02-19T12:43:30;97570.41;;;-6.43;67.77
50672;BME280;46021;55.882;37.654;2023-02-19T12:46:00;97568.69;;;-6.57;68.06
50672;BME280;46021;55.882;37.654;2023-02-19T12:48:32;97567.88;;;-6.48;68.93
50672;BME280;46021;55.882;37.654;2023-02-19T12:51:05;97567.88;;;-6.42;68.51
50672;BME280;46021;55.882;37.654;2023-02-19T12:53:38;97576.34;;;-6.24;68.19
50672;BME280;46021;55.882;37.654;2023-02-19T12:56:13;97583.97;;;-6.20;67.72
50672;BME280;46021;55.882;37.654;2023-02-19T12:58:47;97584.78;;;-6.35;68.08
50672;BME280;46021;55.882;37.654;2023-02-19T13:01:19;97579.69;;;-6.38;68.34
50672;BME280;46021;55.882;37.654;2023-02-19T13:03:52;97588.16;;;-6.27;68.11
50672;BME280;46021;55.882;37.654;2023-02-19T13:06:29;97583.09;;;-6.27;67.79
50672;BME280;46021;55.882;37.654;2023-02-19T13:09:02;97585.63;;;-6.36;68.60
50672;BME280;46021;55.882;37.654;2023-02-19T13:11:36;97578.84;;;-6.54;68.69
50672;BME280;46021;55.882;37.654;2023-02-19T13:14:12;97583.91;;;-6.49;68.66
50672;BME280;46021;55.882;37.654;2023-02-19T13:16:45;97587.31;;;-6.35;68.84
50672;BME280;46021;55.882;37.654;2023-02-19T13:19:14;97589.00;;;-6.29;68.93
50672;BME280;46021;55.882;37.654;2023-02-19T13:21:43;97586.47;;;-6.31;68.52
50672;BME280;46021;55.882;37.654;2023-02-19T13:24:31;97583.09;;;-6.23;69.16
50672;BME280;46021;55.882;37.654;2023-02-19T13:29:59;97578.03;;;-6.19;68.91
50672;BME280;46021;55.882;37.654;2023-02-19T13:32:48;97577.19;;;-6.18;68.94